sensor_id;sensor_type;location;lat;lon;timestamp;pressure;altitude;pressure_sealevel;temperature;humidity
56689;BME280;42565;53.342;-1.534;2023-04-07T00:00:48;99208.63;;;8.71;50.73
56689;BME280;42565;53.342;-1.534;2023-04-07T00:03:14;99209.82;;;7.96;51.96
56689;BME280;42565;53.342;-1.534;2023-04-07T00:05:42;99207.52;;;8.36;52.31
56689;BME280;42565;53.342;-1.534;2023-04-07T00:08:10;99209.27;;;7.95;53.36
56689;BME280;42565;53.342;-1.534;2023-04-07T00:10:36;99209.19;;;8.39;51.99
56689;BME280;42565;53.342;-1.534;2023-04-07T00:13:04;99202.31;;;8.48;51.35
56689;BME280;42565;53.342;-1.534;2023-04-07T00:15:31;99203.11;;;8.56;50.78
56689;BME280;42565;53.342;-1.534;2023-04-07T00:17:57;99201.81;;;8.44;51.13
56689;BME280;42565;53.342;-1.534;2023-04-07T00:20:24;99204.13;;;8.32;50.78
56689;BME280;42565;53.342;-1.534;2023-04-07T00:22:52;99205.68;;;8.25;51.45
56689;BME280;42565;53.342;-1.534;2023-04-07T00:25:18;99209.26;;;8.65;50.58
56689;BME280;42565;53.342;-1.534;2023-04-07T00:27:45;99208.48;;;8.38;50.95
56689;BME280;42565;53.342;-1.534;2023-04-07T00:30:12;99214.12;;;8.08;51.95
56689;BME280;42565;53.342;-1.534;2023-04-07T00:32:39;99214.39;;;7.96;51.85
56689;BME280;42565;53.342;-1.534;2023-04-07T00:35:06;99217.03;;;7.89;52.03
56689;BME280;42565;53.342;-1.534;2023-04-07T00:37:33;99216.69;;;8.19;51.56
56689;BME280;42565;53.342;-1.534;2023-04-07T00:40:01;99218.49;;;8.34;51.04
56689;BME280;42565;53.342;-1.534;2023-04-07T00:42:28;99221.64;;;8.68;50.21
56689;BME280;42565;53.342;-1.534;2023-04-07T00:44:55;99222.48;;;8.34;50.44
56689;BME280;42565;53.342;-1.534;2023-04-07T00:47:22;99225.28;;;8.34;50.78
56689;BME280;42565;53.342;-1.534;2023-04-07T00:49:50;99231.96;;;8.39;50.84
56689;BME280;42565;53.342;-1.534;2023-04-07T00:52:16;99235.88;;;8.13;51.15
56689;BME280;42565;53.342;-1.534;2023-04-07T00:54:45;99233.96;;;8.35;51.26
56689;BME280;42565;53.342;-1.534;2023-04-07T00:57:13;99232.14;;;8.55;50.79
56689;BME280;42565;53.342;-1.534;2023-04-07T00:59:40;99233.31;;;8.61;50.98
56689;BME280;42565;53.342;-1.534;2023-04-07T01:02:10;99232.92;;;8.60;50.39
56689;BME280;42565;53.342;-1.534;2023-04-07T01:04:44;99234.67;;;8.44;50.03
56689;BME280;42565;53.342;-1.534;2023-04-07T01:07:17;99239.35;;;8.51;50.51
56689;BME280;42565;53.342;-1.534;2023-04-07T01:09:52;99242.82;;;8.53;50.57
56689;BME280;42565;53.342;-1.534;2023-04-07T01:12:26;99242.75;;;8.37;50.71
56689;BME280;42565;53.342;-1.534;2023-04-07T01:14:59;99241.02;;;8.36;51.15
56689;BME280;42565;53.342;-1.534;2023-04-07T01:17:32;99239.47;;;8.30;50.69
56689;BME280;42565;53.342;-1.534;2023-04-07T01:20:02;99239.25;;;8.92;49.56
56689;BME280;42565;53.342;-1.534;2023-04-07T01:22:41;99239.89;;;8.74;49.45
56689;BME280;42565;53.342;-1.534;2023-04-07T01:26:19;99243.27;;;8.64;49.92
56689;BME280;42565;53.342;-1.534;2023-04-07T01:29:00;99246.95;;;9.07;49.55
56689;BME280;42565;53.342;-1.534;2023-04-07T01:31:30;99249.72;;;8.47;50.12
56689;BME280;42565;53.342;-1.534;2023-04-07T01:33:59;99250.31;;;8.40;50.06
56689;BME280;42565;53.342;-1.534;2023-04-07T01:36:30;99247.78;;;8.65;49.75
56689;BME280;42565;53.342;-1.534;2023-04-07T01:38:58;99248.51;;;8.27;49.76
56689;BME280;42565;53.342;-1.534;2023-04-07T01:41:26;99247.56;;;8.25;50.05
56689;BME280;42565;53.342;-1.534;2023-04-07T01:43:53;99246.94;;;8.64;49.51
56689;BME280;42565;53.342;-1.534;2023-04-07T01:46:21;99246.05;;;7.85;49.49
56689;BME280;42565;53.342;-1.534;2023-04-07T01:48:48;99244.07;;;8.08;49.42
56689;BME280;42565;53.342;-1.534;2023-04-07T01:51:16;99247.57;;;7.95;49.35
56689;BME280;42565;53.342;-1.534;2023-04-07T01:53:44;99242.75;;;7.92;49.91
56689;BME280;42565;53.342;-1.534;2023-04-07T01:56:13;99245.63;;;8.37;49.43
56689;BME280;42565;53.342;-1.534;2023-04-07T01:58:40;99246.63;;;8.23;49.35
56689;BME280;42565;53.342;-1.534;2023-04-07T02:01:08;99249.72;;;8.60;48.18
56689;BME280;42565;53.342;-1.534;2023-04-07T02:03:42;99250.01;;;8.57;48.37
56689;BME280;42565;53.342;-1.534;2023-04-07T02:06:13;99251.38;;;8.41;48.98
56689;BME280;42565;53.342;-1.534;2023-04-07T02:08:46;99254.28;;;8.14;49.15
56689;BME280;42565;53.342;-1.534;2023-04-07T02:11:16;99256.74;;;7.97;49.15
56689;BME280;42565;53.342;-1.534;2023-04-07T02:13:45;99256.64;;;8.03;48.73
56689;BME280;42565;53.342;-1.534;2023-04-07T02:16:14;99258.91;;;8.30;48.78
56689;BME280;42565;53.342;-1.534;2023-04-07T02:18:43;99262.67;;;8.17;48.10
56689;BME280;42565;53.342;-1.534;2023-04-07T02:21:14;99263.79;;;8.89;47.52
56689;BME280;42565;53.342;-1.534;2023-04-07T02:23:41;99259.76;;;8.56;47.88
56689;BME280;42565;53.342;-1.534;2023-04-07T02:26:08;99255.73;;;8.16;48.37
56689;BME280;42565;53.342;-1.534;2023-04-07T02:28:35;99250.88;;;7.71;48.51
56689;BME280;42565;53.342;-1.534;2023-04-07T02:31:02;99252.31;;;7.84;48.66
56689;BME280;42565;53.342;-1.534;2023-04-07T02:33:30;99252.47;;;7.39;49.19
56689;BME280;42565;53.342;-1.534;2023-04-07T02:35:56;99256.28;;;7.66;48.95
56689;BME280;42565;53.342;-1.534;2023-04-07T02:38:23;99258.14;;;7.95;48.33
56689;BME280;42565;53.342;-1.534;2023-04-07T02:40:51;99256.32;;;8.19;48.15
56689;BME280;42565;53.342;-1.534;2023-04-07T02:43:19;99250.47;;;7.88;48.61
56689;BME280;42565;53.342;-1.534;2023-04-07T02:45:47;99244.47;;;8.05;48.55
56689;BME280;42565;53.342;-1.534;2023-04-07T02:48:14;99243.24;;;7.90;47.86
56689;BME280;42565;53.342;-1.534;2023-04-07T02:50:41;99251.10;;;7.74;48.43
56689;BME280;42565;53.342;-1.534;2023-04-07T02:53:09;99254.31;;;7.46;48.84
56689;BME280;42565;53.342;-1.534;2023-04-07T02:55:35;99257.97;;;7.83;48.41
56689;BME280;42565;53.342;-1.534;2023-04-07T02:58:02;99255.95;;;8.20;47.89
56689;BME280;42565;53.342;-1.534;2023-04-07T03:00:29;99259.02;;;8.11;47.59
56689;BME280;42565;53.342;-1.534;2023-04-07T03:02:56;99263.07;;;7.89;48.13
56689;BME280;42565;53.342;-1.534;2023-04-07T03:05:23;99267.83;;;8.11;47.54
56689;BME280;42565;53.342;-1.534;2023-04-07T03:07:50;99268.39;;;8.03;48.03
56689;BME280;42565;53.342;-1.534;2023-04-07T03:10:17;99269.68;;;7.54;47.67
56689;BME280;42565;53.342;-1.534;2023-04-07T03:12:44;99275.27;;;7.56;47.98
56689;BME280;42565;53.342;-1.534;2023-04-07T03:15:11;99274.81;;;7.55;48.51
56689;BME280;42565;53.342;-1.534;2023-04-07T03:17:38;99276.53;;;7.87;47.84
56689;BME280;42565;53.342;-1.534;2023-04-07T03:20:06;99276.38;;;7.83;47.82
56689;BME280;42565;53.342;-1.534;2023-04-07T03:22:34;99280.33;;;7.76;47.55
56689;BME280;42565;53.342;-1.534;2023-04-07T03:25:00;99272.45;;;8.39;46.72
56689;BME280;42565;53.342;-1.534;2023-04-07T03:27:27;99276.04;;;8.16;47.08
56689;BME280;42565;53.342;-1.534;2023-04-07T03:29:54;99276.65;;;7.91;47.15
56689;BME280;42565;53.342;-1.534;2023-04-07T03:32:20;99273.17;;;8.26;46.53
56689;BME280;42565;53.342;-1.534;2023-04-07T03:34:47;99279.06;;;7.81;46.61
56689;BME280;42565;53.342;-1.534;2023-04-07T03:37:14;99284.80;;;7.96;46.74
56689;BME280;42565;53.342;-1.534;2023-04-07T03:39:41;99286.68;;;8.33;45.67
56689;BME280;42565;53.342;-1.534;2023-04-07T03:42:07;99286.84;;;8.27;46.01
56689;BME280;42565;53.342;-1.534;2023-04-07T03:44:34;99289.38;;;8.01;46.13
56689;BME280;42565;53.342;-1.534;2023-04-07T03:47:02;99290.84;;;7.98;46.54
56689;BME280;42565;53.342;-1.534;2023-04-07T03:49:28;99289.96;;;7.86;46.25
56689;BME280;42565;53.342;-1.534;2023-04-07T03:51:55;99289.97;;;7.91;45.85
56689;BME280;42565;53.342;-1.534;2023-04-07T03:54:22;99295.63;;;8.01;45.36
56689;BME280;42565;53.342;-1.534;2023-04-07T03:56:49;99301.89;;;7.81;45.47
56689;BME280;42565;53.342;-1.534;2023-04-07T03:59:17;99304.47;;;7.73;45.85
56689;BME280;42565;53.342;-1.534;2023-04-07T04:01:45;99302.41;;;7.49;46.34
56689;BME280;42565;53.342;-1.534;2023-04-07T04:04:12;99302.04;;;7.42;46.87
56689;BME280;42565;53.342;-1.534;2023-04-07T04:06:39;99302.09;;;7.15;46.70
56689;BME280;42565;53.342;-1.534;2023-04-07T04:09:06;99304.01;;;7.49;46.49
56689;BME280;42565;53.342;-1.534;2023-04-07T04:11:32;99309.98;;;7.39;46.68
56689;BME280;42565;53.342;-1.534;2023-04-07T04:13:59;99310.59;;;6.70;47.00
56689;BME280;42565;53.342;-1.534;2023-04-07T04:16:26;99311.78;;;7.12;46.71
56689;BME280;42565;53.342;-1.534;2023-04-07T04:18:53;99315.08;;;7.06;46.44
56689;BME280;42565;53.342;-1.534;2023-04-07T04:21:19;99318.87;;;6.88;46.22
56689;BME280;42565;53.342;-1.534;2023-04-07T04:23:46;99317.70;;;7.05;46.22
56689;BME280;42565;53.342;-1.534;2023-04-07T04:26:13;99318.01;;;7.08;46.17
56689;BME280;42565;53.342;-1.534;2023-04-07T04:28:40;99318.95;;;6.87;45.97
56689;BME280;42565;53.342;-1.534;2023-04-07T04:31:07;99317.88;;;7.19;45.70
56689;BME280;42565;53.342;-1.534;2023-04-07T04:33:34;99321.96;;;6.95;45.88
56689;BME280;42565;53.342;-1.534;2023-04-07T04:36:01;99324.63;;;7.20;45.61
56689;BME280;42565;53.342;-1.534;2023-04-07T04:38:28;99328.25;;;6.76;46.32
56689;BME280;42565;53.342;-1.534;2023-04-07T04:40:55;99329.62;;;6.90;46.19
56689;BME280;42565;53.342;-1.534;2023-04-07T04:43:22;99329.57;;;6.46;47.05
56689;BME280;42565;53.342;-1.534;2023-04-07T04:45:49;99331.85;;;6.69;46.68
56689;BME280;42565;53.342;-1.534;2023-04-07T04:48:16;99336.55;;;6.30;46.97
56689;BME280;42565;53.342;-1.534;2023-04-07T04:50:43;99337.08;;;6.92;46.53
56689;BME280;42565;53.342;-1.534;2023-04-07T04:53:09;99339.49;;;7.13;46.46
56689;BME280;42565;53.342;-1.534;2023-04-07T04:55:36;99341.81;;;6.97;46.18
56689;BME280;42565;53.342;-1.534;2023-04-07T04:58:03;99343.39;;;7.00;46.16
56689;BME280;42565;53.342;-1.534;2023-04-07T05:00:30;99342.06;;;6.82;45.93
56689;BME280;42565;53.342;-1.534;2023-04-07T05:02:56;99343.92;;;6.98;45.92
56689;BME280;42565;53.342;-1.534;2023-04-07T05:05:23;99340.36;;;7.29;45.53
56689;BME280;42565;53.342;-1.534;2023-04-07T05:07:50;99341.16;;;7.42;45.48
56689;BME280;42565;53.342;-1.534;2023-04-07T05:10:18;99343.35;;;6.76;46.37
56689;BME280;42565;53.342;-1.534;2023-04-07T05:12:45;99342.35;;;7.00;46.54
56689;BME280;42565;53.342;-1.534;2023-04-07T05:15:12;99345.18;;;7.27;45.91
56689;BME280;42565;53.342;-1.534;2023-04-07T05:17:39;99345.21;;;7.10;45.39
56689;BME280;42565;53.342;-1.534;2023-04-07T05:20:08;99351.46;;;6.97;45.75
56689;BME280;42565;53.342;-1.534;2023-04-07T05:22:36;99354.67;;;7.00;45.85
56689;BME280;42565;53.342;-1.534;2023-04-07T05:25:03;99356.85;;;7.00;46.10
56689;BME280;42565;53.342;-1.534;2023-04-07T05:27:31;99357.70;;;6.79;46.23
56689;BME280;42565;53.342;-1.534;2023-04-07T05:29:57;99363.26;;;7.02;46.33
56689;BME280;42565;53.342;-1.534;2023-04-07T05:32:26;99365.30;;;6.60;46.97
56689;BME280;42565;53.342;-1.534;2023-04-07T05:34:53;99364.57;;;6.67;46.59
56689;BME280;42565;53.342;-1.534;2023-04-07T05:37:20;99365.60;;;6.97;46.66
56689;BME280;42565;53.342;-1.534;2023-04-07T05:39:47;99369.28;;;7.14;46.79
56689;BME280;42565;53.342;-1.534;2023-04-07T05:42:14;99369.03;;;6.91;46.35
56689;BME280;42565;53.342;-1.534;2023-04-07T05:44:41;99372.57;;;7.44;46.39
56689;BME280;42565;53.342;-1.534;2023-04-07T05:47:08;99373.10;;;7.10;47.27
56689;BME280;42565;53.342;-1.534;2023-04-07T05:49:36;99375.79;;;7.05;46.53
56689;BME280;42565;53.342;-1.534;2023-04-07T05:52:03;99379.47;;;7.08;46.46
56689;BME280;42565;53.342;-1.534;2023-04-07T05:54:31;99380.66;;;7.63;46.50
56689;BME280;42565;53.342;-1.534;2023-04-07T05:56:58;99382.16;;;7.30;45.91
56689;BME280;42565;53.342;-1.534;2023-04-07T05:59:24;99382.37;;;7.41;45.95
56689;BME280;42565;53.342;-1.534;2023-04-07T06:01:51;99386.20;;;7.51;46.12
56689;BME280;42565;53.342;-1.534;2023-04-07T06:04:18;99386.38;;;7.51;46.39
56689;BME280;42565;53.342;-1.534;2023-04-07T06:06:45;99388.48;;;7.85;45.98
56689;BME280;42565;53.342;-1.534;2023-04-07T06:09:13;99386.84;;;7.74;45.73
56689;BME280;42565;53.342;-1.534;2023-04-07T06:11:40;99388.63;;;7.83;45.99
56689;BME280;42565;53.342;-1.534;2023-04-07T06:14:07;99395.49;;;8.10;45.38
56689;BME280;42565;53.342;-1.534;2023-04-07T06:16:33;99399.52;;;8.25;45.59
56689;BME280;42565;53.342;-1.534;2023-04-07T06:19:00;99403.69;;;8.15;45.70
56689;BME280;42565;53.342;-1.534;2023-04-07T06:21:27;99403.73;;;8.03;45.78
56689;BME280;42565;53.342;-1.534;2023-04-07T06:23:53;99407.03;;;8.02;45.96
56689;BME280;42565;53.342;-1.534;2023-04-07T06:26:20;99409.28;;;8.10;45.99
56689;BME280;42565;53.342;-1.534;2023-04-07T06:28:48;99407.14;;;8.17;46.04
56689;BME280;42565;53.342;-1.534;2023-04-07T06:31:16;99409.64;;;7.91;46.01
56689;BME280;42565;53.342;-1.534;2023-04-07T06:33:43;99413.06;;;8.25;45.90
56689;BME280;42565;53.342;-1.534;2023-04-07T06:36:11;99419.39;;;7.92;45.77
56689;BME280;42565;53.342;-1.534;2023-04-07T06:38:38;99423.31;;;8.16;45.49
56689;BME280;42565;53.342;-1.534;2023-04-07T06:41:05;99421.57;;;8.67;45.55
56689;BME280;42565;53.342;-1.534;2023-04-07T06:43:32;99422.24;;;8.40;45.57
56689;BME280;42565;53.342;-1.534;2023-04-07T06:45:59;99424.71;;;8.55;45.63
56689;BME280;42565;53.342;-1.534;2023-04-07T06:48:26;99424.65;;;8.45;45.71
56689;BME280;42565;53.342;-1.534;2023-04-07T06:50:54;99428.18;;;9.03;45.20
56689;BME280;42565;53.342;-1.534;2023-04-07T06:53:22;99430.05;;;8.65;45.35
56689;BME280;42565;53.342;-1.534;2023-04-07T06:55:49;99433.97;;;9.44;45.04
56689;BME280;42565;53.342;-1.534;2023-04-07T06:58:15;99437.48;;;8.96;44.15
56689;BME280;42565;53.342;-1.534;2023-04-07T07:00:42;99440.93;;;9.64;43.77
56689;BME280;42565;53.342;-1.534;2023-04-07T07:03:09;99442.48;;;10.13;43.25
56689;BME280;42565;53.342;-1.534;2023-04-07T07:05:36;99439.91;;;10.05;43.25
56689;BME280;42565;53.342;-1.534;2023-04-07T07:08:02;99443.22;;;9.98;43.27
56689;BME280;42565;53.342;-1.534;2023-04-07T07:10:29;99443.40;;;10.14;42.42
56689;BME280;42565;53.342;-1.534;2023-04-07T07:12:57;99447.20;;;9.80;42.73
56689;BME280;42565;53.342;-1.534;2023-04-07T07:15:23;99451.15;;;10.07;42.41
56689;BME280;42565;53.342;-1.534;2023-04-07T07:17:50;99451.94;;;10.02;42.67
56689;BME280;42565;53.342;-1.534;2023-04-07T07:20:17;99454.61;;;10.65;42.15
56689;BME280;42565;53.342;-1.534;2023-04-07T07:22:44;99456.62;;;10.28;42.19
56689;BME280;42565;53.342;-1.534;2023-04-07T07:25:11;99458.89;;;10.56;41.84
56689;BME280;42565;53.342;-1.534;2023-04-07T07:27:39;99454.27;;;10.81;41.64
56689;BME280;42565;53.342;-1.534;2023-04-07T07:30:06;99461.90;;;10.97;41.00
56689;BME280;42565;53.342;-1.534;2023-04-07T07:32:34;99467.15;;;11.12;40.64
56689;BME280;42565;53.342;-1.534;2023-04-07T07:35:01;99469.23;;;11.61;40.33
56689;BME280;42565;53.342;-1.534;2023-04-07T07:37:28;99466.80;;;11.74;40.53
56689;BME280;42565;53.342;-1.534;2023-04-07T07:39:55;99471.50;;;11.84;39.87
56689;BME280;42565;53.342;-1.534;2023-04-07T07:42:22;99472.28;;;11.28;39.88
56689;BME280;42565;53.342;-1.534;2023-04-07T07:44:49;99477.50;;;11.92;40.46
56689;BME280;42565;53.342;-1.534;2023-04-07T07:47:17;99479.24;;;12.01;39.79
56689;BME280;42565;53.342;-1.534;2023-04-07T07:49:44;99478.05;;;12.57;38.85
56689;BME280;42565;53.342;-1.534;2023-04-07T07:52:11;99474.34;;;12.82;38.12
56689;BME280;42565;53.342;-1.534;2023-04-07T07:54:38;99476.76;;;13.13;38.29
56689;BME280;42565;53.342;-1.534;2023-04-07T07:57:05;99472.46;;;12.93;38.14
56689;BME280;42565;53.342;-1.534;2023-04-07T07:59:32;99473.10;;;12.88;38.13
56689;BME280;42565;53.342;-1.534;2023-04-07T08:01:59;99475.89;;;12.94;38.14
56689;BME280;42565;53.342;-1.534;2023-04-07T08:04:27;99473.09;;;13.27;37.85
56689;BME280;42565;53.342;-1.534;2023-04-07T08:06:54;99476.53;;;13.49;36.82
56689;BME280;42565;53.342;-1.534;2023-04-07T08:09:20;99477.37;;;13.85;36.96
56689;BME280;42565;53.342;-1.534;2023-04-07T08:11:47;99479.87;;;13.52;36.79
56689;BME280;42565;53.342;-1.534;2023-04-07T08:14:14;99480.49;;;13.76;37.77
56689;BME280;42565;53.342;-1.534;2023-04-07T08:16:41;99481.45;;;13.42;37.22
56689;BME280;42565;53.342;-1.534;2023-04-07T08:19:09;99479.33;;;13.65;36.48
56689;BME280;42565;53.342;-1.534;2023-04-07T08:21:36;99479.04;;;13.93;36.87
56689;BME280;42565;53.342;-1.534;2023-04-07T08:24:04;99483.77;;;13.97;36.82
56689;BME280;42565;53.342;-1.534;2023-04-07T08:26:32;99486.07;;;14.25;36.24
56689;BME280;42565;53.342;-1.534;2023-04-07T08:28:59;99483.91;;;13.61;36.28
56689;BME280;42565;53.342;-1.534;2023-04-07T08:31:27;99485.99;;;13.69;37.00
56689;BME280;42565;53.342;-1.534;2023-04-07T08:33:54;99486.32;;;13.64;36.71
56689;BME280;42565;53.342;-1.534;2023-04-07T08:36:21;99485.96;;;13.89;36.79
56689;BME280;42565;53.342;-1.534;2023-04-07T08:38:47;99487.60;;;14.06;36.49
56689;BME280;42565;53.342;-1.534;2023-04-07T08:41:19;99491.65;;;13.14;36.45
56689;BME280;42565;53.342;-1.534;2023-04-07T08:43:47;99492.78;;;14.40;37.04
56689;BME280;42565;53.342;-1.534;2023-04-07T08:46:16;99495.50;;;13.45;36.30
56689;BME280;42565;53.342;-1.534;2023-04-07T08:48:50;99497.40;;;14.50;36.02
56689;BME280;42565;53.342;-1.534;2023-04-07T08:51:24;99499.52;;;14.86;35.31
56689;BME280;42565;53.342;-1.534;2023-04-07T08:53:53;99499.08;;;14.55;34.32
56689;BME280;42565;53.342;-1.534;2023-04-07T08:56:24;99503.18;;;14.73;35.47
56689;BME280;42565;53.342;-1.534;2023-04-07T08:58:52;99502.98;;;15.38;35.26
56689;BME280;42565;53.342;-1.534;2023-04-07T09:01:21;99500.16;;;15.58;34.05
56689;BME280;42565;53.342;-1.534;2023-04-07T09:03:50;99506.90;;;15.83;34.82
56689;BME280;42565;53.342;-1.534;2023-04-07T09:06:17;99503.36;;;15.20;33.67
56689;BME280;42565;53.342;-1.534;2023-04-07T09:08:45;99505.12;;;15.83;33.05
56689;BME280;42565;53.342;-1.534;2023-04-07T09:11:11;99502.90;;;16.08;33.17
56689;BME280;42565;53.342;-1.534;2023-04-07T09:13:39;99508.20;;;16.27;34.12
56689;BME280;42565;53.342;-1.534;2023-04-07T09:16:07;99496.60;;;15.51;32.29
56689;BME280;42565;53.342;-1.534;2023-04-07T09:18:34;99502.39;;;15.21;34.12
56689;BME280;42565;53.342;-1.534;2023-04-07T09:21:03;99502.28;;;15.35;35.73
56689;BME280;42565;53.342;-1.534;2023-04-07T09:23:32;99503.57;;;15.08;35.17
56689;BME280;42565;53.342;-1.534;2023-04-07T09:28:45;99499.23;;;15.33;33.42
56689;BME280;42565;53.342;-1.534;2023-04-07T09:31:13;99502.29;;;15.11;35.16
56689;BME280;42565;53.342;-1.534;2023-04-07T09:33:40;99505.01;;;16.13;33.88
56689;BME280;42565;53.342;-1.534;2023-04-07T09:36:07;99502.84;;;16.51;33.02
56689;BME280;42565;53.342;-1.534;2023-04-07T09:38:36;99502.27;;;16.90;30.83
56689;BME280;42565;53.342;-1.534;2023-04-07T09:41:07;99505.41;;;16.35;31.68
56689;BME280;42565;53.342;-1.534;2023-04-07T09:43:36;99508.44;;;15.81;31.80
56689;BME280;42565;53.342;-1.534;2023-04-07T09:46:08;99509.05;;;15.85;31.92
56689;BME280;42565;53.342;-1.534;2023-04-07T09:48:35;99509.98;;;16.29;31.33
56689;BME280;42565;53.342;-1.534;2023-04-07T09:51:08;99506.50;;;16.54;30.15
56689;BME280;42565;53.342;-1.534;2023-04-07T09:53:50;99501.64;;;16.69;29.74
56689;BME280;42565;53.342;-1.534;2023-04-07T09:56:19;99506.16;;;16.64;31.20
56689;BME280;42565;53.342;-1.534;2023-04-07T09:58:48;99504.71;;;16.34;29.91
56689;BME280;42565;53.342;-1.534;2023-04-07T10:01:15;99505.53;;;15.86;30.42
56689;BME280;42565;53.342;-1.534;2023-04-07T10:03:44;99501.40;;;16.95;31.91
56689;BME280;42565;53.342;-1.534;2023-04-07T10:06:11;99500.57;;;17.33;31.39
56689;BME280;42565;53.342;-1.534;2023-04-07T10:08:40;99498.07;;;16.84;29.60
56689;BME280;42565;53.342;-1.534;2023-04-07T10:11:09;99500.55;;;17.31;29.69
56689;BME280;42565;53.342;-1.534;2023-04-07T10:13:38;99500.73;;;16.96;29.40
56689;BME280;42565;53.342;-1.534;2023-04-07T10:16:06;99497.94;;;16.43;29.92
56689;BME280;42565;53.342;-1.534;2023-04-07T10:18:35;99495.13;;;16.63;30.03
56689;BME280;42565;53.342;-1.534;2023-04-07T10:21:07;99493.30;;;17.34;29.45
56689;BME280;42565;53.342;-1.534;2023-04-07T10:23:46;99497.28;;;17.62;30.05
56689;BME280;42565;53.342;-1.534;2023-04-07T10:26:16;99494.26;;;17.70;27.97
56689;BME280;42565;53.342;-1.534;2023-04-07T10:28:47;99493.81;;;17.59;28.41
56689;BME280;42565;53.342;-1.534;2023-04-07T10:31:17;99491.08;;;18.32;26.84
56689;BME280;42565;53.342;-1.534;2023-04-07T10:33:47;99489.32;;;18.54;26.47
56689;BME280;42565;53.342;-1.534;2023-04-07T10:36:15;99488.84;;;17.12;27.64
56689;BME280;42565;53.342;-1.534;2023-04-07T10:39:18;99487.19;;;17.75;27.88
56689;BME280;42565;53.342;-1.534;2023-04-07T10:41:45;99489.74;;;17.42;28.23
56689;BME280;42565;53.342;-1.534;2023-04-07T10:44:44;99484.76;;;17.70;28.25
56689;BME280;42565;53.342;-1.534;2023-04-07T10:47:13;99484.70;;;17.47;28.51
56689;BME280;42565;53.342;-1.534;2023-04-07T10:50:14;99488.26;;;16.46;28.46
56689;BME280;42565;53.342;-1.534;2023-04-07T10:52:42;99487.43;;;17.34;27.38
56689;BME280;42565;53.342;-1.534;2023-04-07T10:55:42;99488.93;;;16.71;29.17
56689;BME280;42565;53.342;-1.534;2023-04-07T10:58:18;99488.26;;;17.70;28.35
56689;BME280;42565;53.342;-1.534;2023-04-07T11:01:19;99486.30;;;17.39;27.62
56689;BME280;42565;53.342;-1.534;2023-04-07T11:03:58;99490.92;;;18.29;28.05
56689;BME280;42565;53.342;-1.534;2023-04-07T11:06:25;99490.41;;;18.34;27.95
56689;BME280;42565;53.342;-1.534;2023-04-07T11:08:53;99487.56;;;19.13;26.58
56689;BME280;42565;53.342;-1.534;2023-04-07T11:11:36;99485.65;;;19.21;25.91
56689;BME280;42565;53.342;-1.534;2023-04-07T11:14:04;99481.30;;;17.45;27.32
56689;BME280;42565;53.342;-1.534;2023-04-07T11:16:41;99482.13;;;18.02;27.98
56689;BME280;42565;53.342;-1.534;2023-04-07T11:19:08;99480.97;;;18.41;27.36
56689;BME280;42565;53.342;-1.534;2023-04-07T11:21:35;99479.15;;;18.81;26.75
56689;BME280;42565;53.342;-1.534;2023-04-07T11:24:03;99473.32;;;18.38;27.52
56689;BME280;42565;53.342;-1.534;2023-04-07T11:26:36;99476.23;;;18.53;25.82
56689;BME280;42565;53.342;-1.534;2023-04-07T11:29:04;99482.25;;;18.49;27.40
56689;BME280;42565;53.342;-1.534;2023-04-07T11:31:31;99477.15;;;18.54;25.95
56689;BME280;42565;53.342;-1.534;2023-04-07T11:33:59;99478.38;;;19.21;25.78
56689;BME280;42565;53.342;-1.534;2023-04-07T11:36:28;99477.20;;;19.03;25.80
56689;BME280;42565;53.342;-1.534;2023-04-07T11:38:55;99479.45;;;18.78;25.18
56689;BME280;42565;53.342;-1.534;2023-04-07T11:41:23;99483.26;;;18.82;26.60
56689;BME280;42565;53.342;-1.534;2023-04-07T11:44:03;99483.69;;;19.66;25.48
56689;BME280;42565;53.342;-1.534;2023-04-07T11:46:30;99478.03;;;20.05;23.88
56689;BME280;42565;53.342;-1.534;2023-04-07T11:49:09;99476.39;;;18.82;25.35
56689;BME280;42565;53.342;-1.534;2023-04-07T11:51:36;99476.53;;;18.57;26.33
56689;BME280;42565;53.342;-1.534;2023-04-07T11:54:04;99478.54;;;18.74;26.46
56689;BME280;42565;53.342;-1.534;2023-04-07T11:56:41;99475.52;;;18.87;23.26
56689;BME280;42565;53.342;-1.534;2023-04-07T11:59:18;99476.23;;;19.48;23.91
56689;BME280;42565;53.342;-1.534;2023-04-07T12:01:45;99471.70;;;20.90;24.25
56689;BME280;42565;53.342;-1.534;2023-04-07T12:04:13;99472.89;;;20.37;22.86
56689;BME280;42565;53.342;-1.534;2023-04-07T12:06:40;99474.15;;;20.48;23.90
56689;BME280;42565;53.342;-1.534;2023-04-07T12:09:23;99472.58;;;19.63;23.71
56689;BME280;42565;53.342;-1.534;2023-04-07T12:11:50;99474.75;;;18.50;25.28
56689;BME280;42565;53.342;-1.534;2023-04-07T12:14:18;99472.98;;;17.69;24.74
56689;BME280;42565;53.342;-1.534;2023-04-07T12:16:45;99468.62;;;18.76;27.26
56689;BME280;42565;53.342;-1.534;2023-04-07T12:19:13;99472.54;;;18.88;25.75
56689;BME280;42565;53.342;-1.534;2023-04-07T12:21:40;99473.05;;;18.87;25.03
56689;BME280;42565;53.342;-1.534;2023-04-07T12:24:08;99471.66;;;19.16;25.29
56689;BME280;42565;53.342;-1.534;2023-04-07T12:26:35;99468.99;;;18.91;23.91
56689;BME280;42565;53.342;-1.534;2023-04-07T12:29:03;99473.25;;;17.09;25.12
56689;BME280;42565;53.342;-1.534;2023-04-07T12:31:30;99474.76;;;18.60;26.24
56689;BME280;42565;53.342;-1.534;2023-04-07T12:33:58;99476.40;;;19.70;25.33
56689;BME280;42565;53.342;-1.534;2023-04-07T12:36:25;99468.95;;;19.58;26.16
56689;BME280;42565;53.342;-1.534;2023-04-07T12:38:53;99466.73;;;20.03;23.95
56689;BME280;42565;53.342;-1.534;2023-04-07T12:41:20;99466.71;;;19.93;23.48
56689;BME280;42565;53.342;-1.534;2023-04-07T12:43:48;99468.23;;;20.41;23.70
56689;BME280;42565;53.342;-1.534;2023-04-07T12:46:14;99463.29;;;20.12;21.39
56689;BME280;42565;53.342;-1.534;2023-04-07T12:48:43;99460.10;;;19.58;21.74
56689;BME280;42565;53.342;-1.534;2023-04-07T12:51:10;99464.66;;;19.66;23.09
56689;BME280;42565;53.342;-1.534;2023-04-07T12:53:38;99468.40;;;19.81;24.14
56689;BME280;42565;53.342;-1.534;2023-04-07T12:56:05;99469.50;;;20.35;24.42
56689;BME280;42565;53.342;-1.534;2023-04-07T12:58:33;99461.81;;;19.92;22.24
56689;BME280;42565;53.342;-1.534;2023-04-07T13:01:00;99467.03;;;18.48;23.57
56689;BME280;42565;53.342;-1.534;2023-04-07T13:03:28;99463.50;;;18.86;25.26
56689;BME280;42565;53.342;-1.534;2023-04-07T13:05:55;99464.93;;;18.88;25.74